createdAt,value
2018-06-14T00:00:07.806Z,9.0
2018-06-14T00:05:01.357Z,9.1
2018-06-14T00:10:01.428Z,9.2
2018-06-14T00:15:01.326Z,8.9
2018-06-14T00:20:01.514Z,9.3
2018-06-14T00:25:01.324Z,9.3
2018-06-14T00:30:01.460Z,9.0
2018-06-14T00:35:01.328Z,9.1
2018-06-14T00:40:01.441Z,9.3
2018-06-14T00:45:01.338Z,9.2
2018-06-14T00:50:01.679Z,9.4
2018-06-14T00:55:01.314Z,10.0
2018-06-14T01:00:01.858Z,9.9
2018-06-14T01:05:01.413Z,10.0
2018-06-14T01:10:06.607Z,10.0
2018-06-14T01:15:02.387Z,10.0
2018-06-14T01:20:02.215Z,9.7
2018-06-14T01:25:01.385Z,9.8
2018-06-14T01:30:01.384Z,9.9
2018-06-14T01:35:01.359Z,9.8
2018-06-14T01:40:01.483Z,10.2
2018-06-14T01:45:01.450Z,10.4
2018-06-14T01:50:01.503Z,10.2
2018-06-14T01:55:01.356Z,10.6
2018-06-14T02:00:01.462Z,10.7
2018-06-14T02:05:01.395Z,10.2
2018-06-14T02:10:01.409Z,9.8
2018-06-14T02:15:01.364Z,10.0
2018-06-14T02:20:02.531Z,9.6
2018-06-14T02:25:01.404Z,9.4
2018-06-14T02:30:01.866Z,9.5
2018-06-14T02:35:01.452Z,9.2
2018-06-14T02:40:01.516Z,9.4
2018-06-14T02:45:01.378Z,9.6
2018-06-14T02:50:06.411Z,9.7
2018-06-14T03:00:07.731Z,10.6
2018-06-14T03:05:01.449Z,10.6
2018-06-14T03:10:01.521Z,11.0
2018-06-14T03:15:06.444Z,11.2
2018-06-14T03:20:03.090Z,11.0
2018-06-14T03:25:01.414Z,11.2
2018-06-14T03:30:02.579Z,11.3
2018-06-14T03:35:01.459Z,11.3
2018-06-14T03:40:02.489Z,11.4
2018-06-14T03:45:01.372Z,11.7
2018-06-14T03:50:01.497Z,11.4
2018-06-14T03:55:01.401Z,11.8
2018-06-14T04:00:01.597Z,12.0
2018-06-14T04:10:02.617Z,12.4
2018-06-14T04:15:01.446Z,12.6
2018-06-14T04:20:01.890Z,12.5
2018-06-14T04:25:01.420Z,12.6
2018-06-14T04:30:01.393Z,12.2
2018-06-14T04:35:01.334Z,11.6
2018-06-14T04:40:01.511Z,11.6
2018-06-14T04:45:01.382Z,11.6
2018-06-14T04:50:01.407Z,11.4
2018-06-14T04:55:01.354Z,12.0
2018-06-14T05:00:01.441Z,12.1
2018-06-14T05:10:02.164Z,12.0
2018-06-14T05:15:01.414Z,11.2
2018-06-14T05:20:01.440Z,10.7
2018-06-14T05:30:01.515Z,11.2
2018-06-14T05:35:01.482Z,11.4
2018-06-14T05:40:01.504Z,11.5
2018-06-14T05:45:01.387Z,12.0
2018-06-14T05:50:02.475Z,11.6
2018-06-14T05:55:01.372Z,11.3
2018-06-14T06:00:02.670Z,10.4
2018-06-14T06:05:01.371Z,11.2
2018-06-14T06:10:01.373Z,11.1
2018-06-14T06:15:01.410Z,11.5
2018-06-14T06:20:02.020Z,11.8
2018-06-14T06:25:01.476Z,12.6
2018-06-14T06:30:01.561Z,12.2
2018-06-14T06:35:01.561Z,12.6
2018-06-14T06:40:01.485Z,12.0
2018-06-14T06:45:01.445Z,12.0
2018-06-14T06:50:01.509Z,12.3
2018-06-14T06:55:01.407Z,12.8
2018-06-14T07:00:01.543Z,12.9
2018-06-14T07:05:01.407Z,14.0
2018-06-14T07:10:01.865Z,14.4
2018-06-14T07:15:01.385Z,14.4
2018-06-14T07:20:01.623Z,14.9
2018-06-14T07:25:01.391Z,15.1
2018-06-14T07:30:01.502Z,15.2
2018-06-14T07:35:01.389Z,15.2
2018-06-14T07:40:01.450Z,15.4
2018-06-14T07:45:01.384Z,15.1
2018-06-14T07:50:01.527Z,15.1
2018-06-14T07:55:01.456Z,14.8
2018-06-14T08:00:02.140Z,14.9
2018-06-14T08:05:01.442Z,15.1
2018-06-14T08:10:07.560Z,15.3
2018-06-14T08:15:01.537Z,15.9
2018-06-14T08:20:01.478Z,16.4
2018-06-14T08:25:01.374Z,16.3
2018-06-14T08:30:01.436Z,16.4
2018-06-14T08:35:01.386Z,16.8
2018-06-14T08:40:01.609Z,16.1
2018-06-14T08:45:01.481Z,15.2
2018-06-14T08:50:01.468Z,15.5
2018-06-14T08:55:01.472Z,15.5
2018-06-14T09:00:02.691Z,15.6
2018-06-14T09:05:01.420Z,16.2
2018-06-14T09:10:01.669Z,17.2
2018-06-14T09:15:01.509Z,17.0
2018-06-14T09:20:06.518Z,17.4
2018-06-14T09:25:01.522Z,17.6
2018-06-14T09:30:02.012Z,17.7
2018-06-14T09:35:01.374Z,19.3
2018-06-14T09:40:01.582Z,20.3
2018-06-14T09:45:01.423Z,20.2
2018-06-14T09:50:01.567Z,19.3
2018-06-14T09:55:01.382Z,19.0
2018-06-14T10:00:01.643Z,17.1
2018-06-14T10:05:06.390Z,16.1
2018-06-14T10:10:01.478Z,16.0
2018-06-14T10:16:01.465Z,16.5
2018-06-14T10:21:01.632Z,16.6
2018-06-14T10:26:01.409Z,15.5
2018-06-14T10:31:01.548Z,15.1
2018-06-14T10:36:01.408Z,14.6
2018-06-14T10:41:01.516Z,14.4
2018-06-14T10:46:01.636Z,13.8
2018-06-14T10:51:01.446Z,14.4
2018-06-14T10:56:01.419Z,14.6
2018-06-14T11:01:01.599Z,15.0
2018-06-14T11:06:01.549Z,14.6
2018-06-14T11:11:01.439Z,14.8
2018-06-14T11:16:01.402Z,14.4
2018-06-14T11:21:01.549Z,14.2
2018-06-14T11:26:01.385Z,14.1
2018-06-14T11:31:06.448Z,14.0
2018-06-14T11:36:01.352Z,14.0
2018-06-14T11:41:01.353Z,14.6
2018-06-14T11:46:01.382Z,14.5
2018-06-14T11:51:01.434Z,14.3
2018-06-14T11:56:01.370Z,14.0
2018-06-14T12:01:01.439Z,14.8
2018-06-14T12:06:01.397Z,15.2
2018-06-14T12:11:01.542Z,15.9
2018-06-14T12:16:01.378Z,16.0
2018-06-14T12:21:01.477Z,16.2
2018-06-14T12:27:01.374Z,15.4
2018-06-14T12:32:01.433Z,15.2
2018-06-14T12:37:01.436Z,14.8
2018-06-14T12:42:01.897Z,14.5
2018-06-14T12:52:02.410Z,14.4
2018-06-14T12:57:01.479Z,13.6
2018-06-14T13:02:01.424Z,13.0
2018-06-14T13:07:01.443Z,13.3
2018-06-14T13:12:01.468Z,13.2
2018-06-14T13:17:01.433Z,13.7
2018-06-14T13:22:01.724Z,14.3
2018-06-14T13:27:02.470Z,14.9
2018-06-14T13:32:01.562Z,14.7
2018-06-14T13:37:01.377Z,15.3
2018-06-14T13:42:01.875Z,15.4
2018-06-14T13:47:01.363Z,15.4
2018-06-14T13:52:01.446Z,15.4
2018-06-14T13:57:01.493Z,15.0
2018-06-14T14:02:02.303Z,14.6
2018-06-14T14:07:01.413Z,14.5
2018-06-14T14:23:01.937Z,14.2
2018-06-14T14:28:01.431Z,13.8
2018-06-14T14:33:01.745Z,14.0
2018-06-14T14:38:01.481Z,14.7
2018-06-14T14:48:01.443Z,15.7
2018-06-14T14:53:01.503Z,16.6
2018-06-14T14:58:01.563Z,16.6
2018-06-14T15:03:01.394Z,17.1
2018-06-14T15:08:01.535Z,18.4
2018-06-14T15:13:01.402Z,19.3
2018-06-14T15:18:01.892Z,19.5
2018-06-14T15:23:01.409Z,20.0
2018-06-14T15:28:01.437Z,19.9
2018-06-14T15:33:01.353Z,19.6
2018-06-14T15:38:01.509Z,19.5
2018-06-14T15:43:01.369Z,20.9
2018-06-14T15:48:01.461Z,22.8
2018-06-14T15:53:01.368Z,24.1
2018-06-14T15:58:01.432Z,26.0
2018-06-14T16:03:01.369Z,28.4
2018-06-14T16:08:01.506Z,29.7
2018-06-14T16:13:01.379Z,31.2
2018-06-14T16:18:01.511Z,33.0
2018-06-14T16:23:01.385Z,33.6
2018-06-14T16:28:01.438Z,33.8
2018-06-14T16:33:01.379Z,34.5
2018-06-14T16:38:01.437Z,34.2
2018-06-14T16:43:01.362Z,34.2
2018-06-14T16:48:01.482Z,34.8
2018-06-14T16:53:01.699Z,35.4
2018-06-14T16:58:01.514Z,35.8
2018-06-14T17:03:01.519Z,36.3
2018-06-14T17:08:01.450Z,36.8
2018-06-14T17:13:01.414Z,36.8
2018-06-14T17:18:01.502Z,36.1
2018-06-14T17:23:01.413Z,36.0
2018-06-14T17:28:01.500Z,35.6
2018-06-14T17:33:01.381Z,35.4
2018-06-14T17:43:01.519Z,35.4
2018-06-14T17:48:01.467Z,35.6
2018-06-14T17:53:01.391Z,35.5
2018-06-14T17:58:01.506Z,35.5
2018-06-14T18:03:01.509Z,35.2
2018-06-14T18:08:01.440Z,35.4
2018-06-14T18:13:01.376Z,34.9
2018-06-14T18:18:01.441Z,35.1
2018-06-14T18:23:01.478Z,35.0
2018-06-14T18:28:01.380Z,34.8
2018-06-14T18:33:01.381Z,34.8
2018-06-14T18:38:01.541Z,34.8
2018-06-14T18:43:01.374Z,34.1
2018-06-14T18:48:01.498Z,33.7
2018-06-14T18:53:01.373Z,33.9
2018-06-14T18:58:06.441Z,34.3
2018-06-14T19:03:01.380Z,34.4
2018-06-14T19:08:01.378Z,35.0
2018-06-14T19:13:02.401Z,35.0
2018-06-14T19:18:01.577Z,35.6
2018-06-14T19:23:01.406Z,35.2
2018-06-14T19:28:01.459Z,35.5
2018-06-14T19:33:01.340Z,36.8
2018-06-14T19:38:01.431Z,38.5
2018-06-14T19:43:01.699Z,39.1
2018-06-14T19:48:01.378Z,39.9
2018-06-14T19:53:01.346Z,40.8
2018-06-14T19:58:01.441Z,40.9
2018-06-14T20:03:01.889Z,39.7
2018-06-14T20:08:01.441Z,39.0
2018-06-14T20:13:01.618Z,38.2
2018-06-14T20:18:01.435Z,36.6
2018-06-14T20:23:01.408Z,34.3
2018-06-14T20:28:01.546Z,32.8
2018-06-14T20:33:01.375Z,31.8
2018-06-14T20:38:02.470Z,29.3
2018-06-14T20:43:01.389Z,27.5
2018-06-14T20:48:02.667Z,26.5
2018-06-14T20:53:01.759Z,25.3
2018-06-14T20:58:03.841Z,24.5
2018-06-14T21:03:01.431Z,24.3
2018-06-14T21:08:01.435Z,23.3
2018-06-14T21:13:01.417Z,22.6
2018-06-14T21:23:01.574Z,20.1
2018-06-14T21:28:01.375Z,20.1
2018-06-14T21:33:01.378Z,20.2
2018-06-14T21:38:01.492Z,20.2
2018-06-14T21:43:01.379Z,20.2
2018-06-14T21:48:01.445Z,19.7
2018-06-14T21:53:01.424Z,19.6
2018-06-14T21:58:01.437Z,19.5
2018-06-14T22:03:01.443Z,19.5
2018-06-14T22:08:01.504Z,19.9
2018-06-14T22:13:01.392Z,20.1
2018-06-14T22:18:01.446Z,20.2
2018-06-14T22:23:01.451Z,20.2
2018-06-14T22:28:01.529Z,20.6
2018-06-14T22:50:00.466Z,20.0
2018-06-14T22:55:00.514Z,20.1
2018-06-14T23:00:00.589Z,20.0
2018-06-14T23:05:00.529Z,20.4
2018-06-14T23:30:00.992Z,21.0
2018-06-14T23:35:00.824Z,21.3
2018-06-14T23:40:01.084Z,20.9
2018-06-14T23:45:00.835Z,21.1
2018-06-14T23:50:00.919Z,21.0
2018-06-14T23:55:00.845Z,21.4
